• Join FlightAware (Why Join?)
  • Login
  • US Flag 
08:16AM EST


 

Airport Tracker/Info


-or-


 

Live Flight TrackerFlight Track Log ✈ N536EM ✈ 20-Jun-2013 ✈ KMMU - KPDK

Flight Track Log - Related Links

Times and Time Zones

All times are in EDT time to prevent confusion due to time zone crossing. See the N536EM flight status page for this flight to view local times or setup timezone preferences in your user account.

Time Position Orientation Groundspeed Altitude Reporting Facility
EDT Latitude Longitude Course Direction KTS MPH feet Rate Location/Type
04:19PM 40.7500 -74.4333 138° Southeast 166 191 1,200  Level New York TRACON
04:21PM 40.7164 -74.3933 138° Southeast 98 113 3,900 1,430 Climbing New York Center
04:22PM 40.7514 -74.3458 46° Northeast 142 163 5,300 1,770 Climbing New York Center
04:23PM 40.7872 -74.3258 23° Northeast 142 163 7,500 1,916 Climbing New York Center
04:24PM 40.8031 -74.3594 302° West 104 120 9,100 1,815 Climbing New York Center
04:25PM 40.8011 -74.4169 267° West 124 143 11,100 1,736 Climbing New York Center
04:26PM 40.7875 -74.4575 246° West 142 163 12,600 1,438 Climbing New York Center
04:27PM 40.7669 -74.5083 242° Southwest 157 181 14,000 893 Climbing New York Center
04:28PM 40.7397 -74.5781 243° Southwest 193 222 14,400 1,017 Climbing New York Center
04:29PM 40.7147 -74.6450 244° Southwest 200 230 16,000 814 Climbing New York Center
04:30PM 40.6875 -74.7147 243° Southwest 211 243 16,000  Level New York Center
04:31PM 40.6511 -74.8056 242° Southwest 249 287 16,000 198 Level New York Center
04:32PM 40.6214 -74.8778 242° Southwest 259 298 16,400 992 Climbing New York Center
04:33PM 40.5917 -74.9525 242° Southwest 229 264 18,000 807 Climbing New York Center
04:34PM 40.5597 -75.0297 241° Southwest 229 264 18,000  Level New York Center
04:35PM 40.5156 -75.1006 231° Southwest 251 289 18,000  Level New York Center
04:36PM 40.4733 -75.1689 231° Southwest 269 310 18,000 50 Level New York Center
04:37PM 40.4247 -75.2422 229° Southwest 269 310 18,100 1,438 Climbing New York Center
04:38PM 40.3892 -75.2997 231° Southwest 251 289 20,900 2,182 Climbing New York Center
04:39PM 40.3625 -75.3472 234° Southwest 201 231 22,500 1,450 Climbing New York Center
04:40PM 40.3336 -75.3914 229° Southwest 177 204 23,800 1,271 Climbing New York Center
04:41PM 40.3025 -75.4383 229° Southwest 172 198 25,000 1,169 Climbing New York Center
04:42PM 40.2692 -75.4906 230° Southwest 178 205 26,100 1,091 Climbing New York Center
04:43PM 40.2400 -75.5431 234° Southwest 178 205 27,200 1,033 Climbing New York Center
04:44PM 40.2086 -75.5953 232° Southwest 178 205 28,200 1,008 Climbing New York Center
04:45PM 40.1769 -75.6556 236° Southwest 184 212 29,200 900 Climbing New York Center
04:46PM 40.1494 -75.7161 239° Southwest 197 227 30,000 393 Climbing New York Center
04:47PM 40.1156 -75.7814 236° Southwest 210 242 30,000  Level New York Center
04:48PM 40.0767 -75.8572 236° Southwest 230 265 30,000  Level New York Center
04:49PM 40.0358 -75.9383 237° Southwest 255 293 30,000  Level New York Center
04:50PM 39.9969 -76.0169 237° Southwest 261 300 30,000  Level New York Center
04:51PM 39.9533 -76.1031 237° Southwest 272 313 30,000  Level New York Center
04:52PM 39.8744 -76.2483 235° Southwest 276 318 30,000  Level Washington Center
04:53PM 39.8342 -76.3319 238° Southwest 282 325 30,000  Level Washington Center
04:54PM 39.7900 -76.4178 236° Southwest 288 331 30,000  Level Washington Center
04:55PM 39.7478 -76.4983 236° Southwest 283 326 30,000  Level Washington Center
04:56PM 39.7014 -76.5814 234° Southwest 283 326 30,000  Level Washington Center
04:57PM 39.6589 -76.6617 236° Southwest 283 326 30,000  Level Washington Center
04:58PM 39.6164 -76.7444 236° Southwest 283 326 30,000  Level Washington Center
04:59PM 39.5719 -76.8272 235° Southwest 283 326 30,000  Level Washington Center
05:00PM 39.5294 -76.9072 235° Southwest 283 326 30,000  Level Washington Center
05:01PM 39.4867 -76.9872 235° Southwest 283 326 30,000  Level Washington Center
05:02PM 39.4256 -77.0506 219° Southwest 283 326 30,000  Level Washington Center
05:03PM 39.3664 -77.1136 219° Southwest 278 320 30,000  Level Washington Center
05:04PM 39.3072 -77.1742 218° Southwest 278 320 30,000  Level Washington Center
05:05PM 39.2481 -77.2372 220° Southwest 278 320 30,000  Level Washington Center
05:06PM 39.1889 -77.2975 218° Southwest 278 320 30,000  Level Washington Center
05:07PM 39.1297 -77.3631 221° Southwest 283 326 30,000  Level Washington Center
05:08PM 39.0703 -77.4231 218° Southwest 283 326 30,000  Level Washington Center
05:09PM 39.0131 -77.4831 219° Southwest 278 320 30,000  Level Washington Center
05:10PM 38.9475 -77.5533 220° Southwest 285 328 30,000  Level Washington Center
05:11PM 38.8922 -77.6081 218° Southwest 285 328 30,000  Level Washington Center
05:12PM 38.8331 -77.6675 218° Southwest 280 322 30,000  Level Washington Center
05:13PM 38.7608 -77.7400 218° Southwest 292 336 30,000  Level Washington Center
05:14PM 38.7033 -77.8022 220° Southwest 292 336 30,000  Level Washington Center
05:15PM 38.6417 -77.8669 219° Southwest 287 330 30,000  Level Washington Center
05:16PM 38.5942 -77.9478 233° Southwest 282 325 30,000  Level Washington Center
05:17PM 38.5447 -78.0286 232° Southwest 287 330 30,000  Level Washington Center
05:18PM 38.4992 -78.1092 234° Southwest 293 337 30,000  Level Washington Center
05:19PM 38.4517 -78.1925 234° Southwest 293 337 30,000  Level Washington Center
05:20PM 38.4039 -78.2731 233° Southwest 293 337 30,000  Level Washington Center
05:21PM 38.3542 -78.3558 233° Southwest 293 337 30,000  Level Washington Center
05:22PM 38.3086 -78.4336 233° Southwest 293 337 30,000  Level Washington Center
05:23PM 38.2608 -78.5136 233° Southwest 293 337 30,000  Level Washington Center
05:24PM 38.2150 -78.5939 234° Southwest 281 323 30,000  Level Washington Center
05:25PM 38.1692 -78.6714 233° Southwest 281 323 30,000  Level Washington Center
05:26PM 38.1233 -78.7514 234° Southwest 281 323 30,000  Level Washington Center
05:27PM 38.0778 -78.8206 230° Southwest 281 323 30,000  Level Washington Center
05:28PM 38.0297 -78.9003 233° Southwest 286 329 30,000  Level Washington Center
05:29PM 37.9817 -78.9797 233° Southwest 286 329 30,000  Level Washington Center
05:30PM 37.9311 -79.0644 233° Southwest 286 329 30,000  Level Washington Center
05:31PM 37.8853 -79.1386 232° Southwest 286 329 30,000  Level Washington Center
05:32PM 37.8308 -79.2150 228° Southwest 286 329 30,000  Level Washington Center
05:33PM 37.7764 -79.2858 226° Southwest 286 329 30,000  Level Washington Center
05:34PM 37.7306 -79.3492 228° Southwest 281 323 30,000  Level Washington Center
05:35PM 37.6764 -79.4200 226° Southwest 281 323 30,000  Level Washington Center
05:36PM 37.6194 -79.5011 228° Southwest 281 323 30,000  Level Washington Center
05:37PM 37.5714 -79.5667 227° Southwest 281 323 30,000  Level Washington Center
05:38PM 37.5144 -79.6475 228° Southwest 281 323 30,000  Level Washington Center
05:39PM 37.4600 -79.7178 226° Southwest 281 323 30,000  Level Washington Center
05:40PM 37.4117 -79.7858 228° Southwest 288 331 30,000  Level Washington Center
05:41PM 37.3589 -79.8589 228° Southwest 288 331 30,000  Level Washington Center
05:42PM 37.2997 -79.9389 227° Southwest 288 331 30,000  Level Washington Center
05:43PM 37.2492 -80.0067 227° Southwest 277 319 30,000  Level Washington Center
05:45PM 37.1675 -80.1139 226° Southwest 267 307 30,000  Level Atlanta Center
05:46PM 37.1175 -80.1814 227° Southwest 272 313 30,000  Level Atlanta Center
05:47PM 37.0656 -80.2517 227° Southwest 272 313 30,000  Level Atlanta Center
05:48PM 37.0192 -80.3111 226° Southwest 278 320 30,000  Level Atlanta Center
05:49PM 36.9692 -80.3808 228° Southwest 278 320 30,000  Level Atlanta Center
05:50PM 36.9169 -80.4483 226° Southwest 278 320 30,000  Level Atlanta Center
05:51PM 36.8589 -80.5261 227° Southwest 278 320 30,000  Level Atlanta Center
05:52PM 36.8067 -80.5933 226° Southwest 278 320 30,000  Level Atlanta Center
05:53PM 36.7564 -80.6628 228° Southwest 278 320 30,000  Level Atlanta Center
05:54PM 36.7100 -80.7242 227° Southwest 277 319 30,000  Level Atlanta Center
05:55PM 36.6597 -80.7911 227° Southwest 277 319 30,000  Level Atlanta Center
05:56PM 36.6075 -80.8631 228° Southwest 277 319 30,000  Level Atlanta Center
05:57PM 36.5508 -80.9350 226° Southwest 277 319 30,000  Level Atlanta Center
05:58PM 36.4983 -81.0069 228° Southwest 277 319 30,000  Level Atlanta Center
05:59PM 36.4458 -81.0758 227° Southwest 277 319 30,000  Level Atlanta Center
06:00PM 36.3933 -81.1450 227° Southwest 282 325 30,000  Level Atlanta Center
06:01PM 36.3408 -81.2139 227° Southwest 274 315 30,000  Level Atlanta Center
06:02PM 36.2881 -81.2853 227° Southwest 279 321 30,000  Level Atlanta Center
06:03PM 36.2375 -81.3514 227° Southwest 273 314 30,000  Level Atlanta Center
06:04PM 36.1867 -81.4197 227° Southwest 279 321 30,000  Level Atlanta Center
06:05PM 36.1319 -81.4911 227° Southwest 274 315 30,000  Level Atlanta Center
06:06PM 36.0792 -81.5594 226° Southwest 274 315 30,000  Level Atlanta Center
06:07PM 36.0261 -81.6278 226° Southwest 274 315 30,000  Level Atlanta Center
06:08PM 35.9753 -81.6911 225° Southwest 274 315 30,000  Level Atlanta Center
06:09PM 35.9264 -81.7564 227° Southwest 274 315 30,000  Level Atlanta Center
06:10PM 35.8714 -81.8247 225° Southwest 274 315 30,000  Level Atlanta Center
06:11PM 35.8186 -81.8978 228° Southwest 279 321 30,000  Level Atlanta Center
06:12PM 35.7633 -81.9633 224° Southwest 274 315 30,000  Level Atlanta Center
06:13PM 35.7122 -82.0286 226° Southwest 274 315 30,000  Level Atlanta Center
06:14PM 35.6592 -82.0989 227° Southwest 274 315 30,000  Level Atlanta Center
06:15PM 35.6058 -82.1639 225° Southwest 274 315 30,000  Level Atlanta Center
06:16PM 35.5528 -82.2342 227° Southwest 274 315 30,000  Level Atlanta Center
06:17PM 35.4933 -82.3067 225° Southwest 274 315 30,000  Level Atlanta Center
06:18PM 35.4483 -82.3817 234° Southwest 274 315 30,000 -750 Level Atlanta Center
06:19PM 35.4014 -82.4589 233° Southwest 284 327 28,500 -1,500 Descending Atlanta Center
06:20PM 35.3503 -82.5442 234° Southwest 297 342 27,000 -1,400 Descending Atlanta Center
06:21PM 35.3053 -82.6136 232° Southwest 302 348 25,700 -1,350 Descending Atlanta Center
06:22PM 35.2561 -82.6983 235° Southwest 302 348 24,300 -1,450 Descending Atlanta Center
06:23PM 35.2050 -82.7881 235° Southwest 308 354 22,800 -1,650 Descending Atlanta Center
06:24PM 35.1453 -82.8856 233° Southwest 321 369 21,000 -1,650 Descending Atlanta Center
06:25PM 35.0961 -82.9675 234° Southwest 321 369 19,500 -1,500 Descending Atlanta Center
06:26PM 35.0425 -83.0569 234° Southwest 321 369 18,000 -1,300 Descending Atlanta Center
06:27PM 34.9911 -83.1439 234° Southwest 321 369 16,900 -1,300 Descending Atlanta Center
06:28PM 34.9414 -83.2281 234° Southwest 316 364 15,400 -1,550 Descending Atlanta Center
06:29PM 34.8897 -83.3119 233° Southwest 316 364 13,800 -1,600 Descending Atlanta Center
06:30PM 34.8444 -83.3833 232° Southwest 302 348 12,200 -1,400 Descending Atlanta Center
06:31PM 34.7967 -83.4619 234° Southwest 291 335 11,000 -1,100 Descending Atlanta Center
06:32PM 34.7450 -83.5281 226° Southwest 285 328 10,000 -500 Descending Atlanta Center
06:33PM 34.7014 -83.5814 225° Southwest 266 306 10,000 -100 Level Atlanta Center
06:34PM 34.6494 -83.6475 226° Southwest 266 306 9,800 -600 Descending Atlanta Center
06:35PM 34.5972 -83.7158 227° Southwest 271 312 8,800 -900 Descending Atlanta Center
06:36PM 34.5392 -83.7892 226° Southwest 271 312 8,000 -400 Descending Atlanta Center
06:37PM 34.4869 -83.8547 226° Southwest 271 312 8,000  Level Atlanta Center
06:38PM 34.4392 -83.9178 227° Southwest 271 312 8,000  Level Atlanta Center
06:39PM 34.3892 -83.9808 226° Southwest 266 306 8,000  Level Atlanta Center
06:40PM 34.3389 -84.0439 226° Southwest 266 306 8,000  Level Atlanta Center
06:41PM 34.2806 -84.0917 214° Southwest 266 306 8,000 -100 Level Atlanta Center
06:42PM 34.2117 -84.1192 198° South 260 299 7,800 -850 Descending Atlanta Center
06:43PM 34.1386 -84.1292 186° South 271 312 6,300 -1,400 Descending Atlanta Center
06:43PM 34.1000 -84.1333 185° South 249 287 5,700 -1,133 Descending Atlanta TRACON
06:44PM 34.0333 -84.1500 192° South 217 250 4,600 -1,000 Descending Atlanta TRACON
06:45PM 33.9833 -84.1500 180° South 227 261 3,700 -800 Descending Atlanta TRACON
06:46PM 33.9167 -84.1667 192° South 248 285 3,000 -368 Descending Atlanta TRACON
06:47PM 33.8833 -84.2000 220° Southwest 177 204 3,000 -368 Level Atlanta TRACON
06:48PM 33.8500 -84.2333 220° Southwest 130 150 2,300 -450 Descending Atlanta TRACON
06:49PM 33.8500 -84.2667 270° West 103 119 2,100 -200 Descending Atlanta TRACON
06:51PM 33.8667 -84.3000 209° Southwest  Level FlightAware Approximate
06:58PM 33.8756 -84.3020 209° Southwest  Level Estimated
06:59PM 33.8756 -84.3020 209° Southwest  Level Estimated